Dayton, Wyoming
Current Conditions -  °F | °C
As of 2:17 PM on Sunday 23 Nov 2014 (Local Time) from KSHR Reporting Station
Light Snow Light Snow  
Wind Chill: 19°   Ceiling: 5000
Heat Index: 33°   Visibility: 1.5mi
Dew Point: 26°   Wind: 31mph
Humidity: 75%   Direction: 290°WNW
Pressure: 29.85"   Gusts: 52mph
Location:  44.88°N, 107.26°W
Report Text: KSHR 232117Z AUTO 29027G45KT 1 1/2SM -SN SCT020 BKN050 OVC090 01/M03 A2985 RMK AO2 PK WND 31045/2111 SNB13 P0000 T00061033 TSNO
Loading
Personal Weather Stations






























Interactive Weather Map New forecast layout! Learn more

10-Day Weather Forecast

Advertisements
Track Severe Weather on mobile